Time;durP1;ratioP1;P1;durP2;ratioP2;P2;SDS_P1;SDS_P2;PMS_P1;PMS_P2;Temp;Humidity;BMP_temperature;BMP_pressure;BME280_temperature;BME280_humidity;BME280_pressure;Samples;Min_cycle;Max_cycle;Signal;HPM_P1;HPM_P2
2021/05/14 00:00:46;;;;;;;1999.90;999.90;;;9.30;99.90;;;;;;5074780;28;20230;-75
2021/05/14 00:03:11;;;;;;;1999.90;999.90;;;9.20;99.90;;;;;;5083590;28;20699;-75
2021/05/14 00:05:37;;;;;;;1999.90;999.90;;;9.30;99.90;;;;;;5074882;28;20261;-75
2021/05/14 00:08:04;;;;;;;1999.90;999.90;;;9.30;99.90;;;;;;5075011;28;20173;-75
2021/05/14 00:10:30;;;;;;;1999.90;999.90;;;9.30;99.90;;;;;;5092668;28;20265;-75
2021/05/14 00:12:56;;;;;;;1999.90;999.90;;;9.40;99.90;;;;;;5093029;28;20680;-75
2021/05/14 00:15:22;;;;;;;1999.90;999.90;;;9.20;99.90;;;;;;5092601;28;20172;-75
2021/05/14 00:17:50;;;;;;;1999.90;999.90;;;9.30;99.90;;;;;;5095785;28;20174;-75
2021/05/14 00:20:16;;;;;;;1999.90;999.90;;;9.30;99.90;;;;;;5096678;28;20164;-75
2021/05/14 00:22:41;;;;;;;1999.90;999.90;;;9.40;99.90;;;;;;5094158;28;20173;-75
2021/05/14 00:25:08;;;;;;;1999.90;999.90;;;9.50;99.90;;;;;;5078314;28;20178;-75
2021/05/14 00:27:34;;;;;;;1999.90;999.90;;;9.50;99.90;;;;;;5096657;28;20259;-75
2021/05/14 00:30:00;;;;;;;1999.90;999.90;;;9.50;99.90;;;;;;5096724;28;20315;-75
2021/05/14 00:32:26;;;;;;;1999.90;999.90;;;9.50;99.90;;;;;;5096534;28;20197;-75
2021/05/14 00:34:52;;;;;;;1999.90;999.90;;;9.50;99.90;;;;;;5089706;28;20833;-75
2021/05/14 00:37:17;;;;;;;1999.90;999.90;;;9.40;99.90;;;;;;5078257;28;20175;-74
2021/05/14 00:39:44;;;;;;;1999.90;999.90;;;9.40;99.90;;;;;;5096342;28;20637;-75
2021/05/14 00:42:10;;;;;;;1999.90;999.90;;;9.30;99.90;;;;;;5096358;28;20279;-75
2021/05/14 00:44:37;;;;;;;1999.90;999.90;;;9.30;99.90;;;;;;5096388;28;20609;-75
2021/05/14 00:47:08;;;;;;;1999.90;999.90;;;9.20;99.90;;;;;;5096502;28;20267;-75
2021/05/14 00:49:35;;;;;;;1999.90;999.90;;;9.20;99.90;;;;;;5096230;28;20206;-75
2021/05/14 00:52:01;;;;;;;1999.90;999.90;;;9.20;99.90;;;;;;5078473;28;20302;-75
2021/05/14 00:54:29;;;;;;;1999.90;999.90;;;9.20;99.90;;;;;;5078318;28;20211;-74
2021/05/14 00:56:55;;;;;;;1999.90;999.90;;;9.20;99.90;;;;;;5096075;28;20660;-75
2021/05/14 00:59:21;;;;;;;1999.90;999.90;;;9.00;99.90;;;;;;5096019;28;20172;-75
2021/05/14 01:01:47;;;;;;;1999.90;999.90;;;8.90;99.90;;;;;;5095968;28;20195;-75
2021/05/14 01:04:13;;;;;;;1999.90;999.90;;;8.90;99.90;;;;;;5095882;28;20180;-75
2021/05/14 01:06:39;;;;;;;1999.90;999.90;;;8.90;99.90;;;;;;5096085;28;20176;-75
2021/05/14 01:09:04;;;;;;;1999.90;999.90;;;8.90;99.90;;;;;;5077583;28;20268;-75
2021/05/14 01:11:31;;;;;;;1999.90;999.90;;;8.70;99.90;;;;;;5115452;22;20258;-74
2021/05/14 01:13:57;;;;;;;1999.90;999.90;;;8.60;99.90;;;;;;5053238;28;20181;-75
2021/05/14 01:16:24;;;;;;;1999.90;999.90;;;8.60;99.90;;;;;;5056850;28;20166;-74
2021/05/14 01:18:50;;;;;;;1999.90;999.90;;;8.60;99.90;;;;;;5057435;28;20198;-74
2021/05/14 01:21:16;;;;;;;1999.90;999.90;;;8.70;99.90;;;;;;5075340;28;20174;-74
2021/05/14 01:23:41;;;;;;;1999.90;999.90;;;8.50;99.90;;;;;;5075295;28;20655;-74
2021/05/14 01:26:13;;;;;;;1999.90;999.90;;;8.60;99.90;;;;;;5075335;28;20179;-75
2021/05/14 01:28:39;;;;;;;1999.90;999.90;;;8.60;99.90;;;;;;5056289;28;20206;-74
2021/05/14 01:31:05;;;;;;;1999.90;999.90;;;8.60;99.90;;;;;;5075077;28;20643;-74
2021/05/14 01:33:31;;;;;;;1999.90;999.90;;;8.50;99.90;;;;;;5074984;28;20194;-74
2021/05/14 01:35:58;;;;;;;1999.90;999.90;;;8.50;99.90;;;;;;5075061;28;20177;-75
2021/05/14 01:38:24;;;;;;;1999.90;999.90;;;8.50;99.90;;;;;;5075102;28;20177;-74
2021/05/14 01:40:50;;;;;;;1999.90;999.90;;;8.40;99.90;;;;;;5074544;28;20563;-76
2021/05/14 01:43:16;;;;;;;1999.90;999.90;;;8.40;99.90;;;;;;5056729;28;20276;-74
2021/05/14 01:45:42;;;;;;;1999.90;999.90;;;8.40;99.90;;;;;;5057093;28;20174;-74
2021/05/14 01:48:08;;;;;;;1999.90;999.90;;;8.20;99.90;;;;;;5056813;28;20708;-74
2021/05/14 01:50:34;;;;;;;1999.90;999.90;;;8.20;99.90;;;;;;5056852;28;20196;-73
2021/05/14 01:53:00;;;;;;;1999.90;999.90;;;8.10;99.90;;;;;;5070824;28;20196;-75
2021/05/14 01:55:25;;;;;;;1999.90;999.90;;;8.00;99.90;;;;;;5042162;28;20173;-73
2021/05/14 01:57:51;;;;;;;1999.90;999.90;;;8.00;99.90;;;;;;5065607;28;20721;-74
2021/05/14 02:00:17;;;;;;;1999.90;999.90;;;8.00;99.90;;;;;;5072484;28;20664;-73
2021/05/14 02:02:43;;;;;;;1999.90;999.90;;;7.80;99.90;;;;;;5073020;28;20284;-73
2021/05/14 02:05:09;;;;;;;1999.90;999.90;;;7.70;99.90;;;;;;5074741;28;20207;-74
2021/05/14 02:07:35;;;;;;;1999.90;999.90;;;7.70;99.90;;;;;;5074064;28;20326;-73
2021/05/14 02:10:00;;;;;;;1999.90;999.90;;;7.70;99.90;;;;;;5073262;28;20197;-72
2021/05/14 02:12:26;;;;;;;1999.90;999.90;;;7.70;99.90;;;;;;5074058;28;20209;-74
2021/05/14 02:14:52;;;;;;;1999.90;999.90;;;7.70;99.90;;;;;;5056452;28;20174;-74
2021/05/14 02:17:17;;;;;;;1999.90;999.90;;;7.80;99.90;;;;;;5056340;28;20544;-74
2021/05/14 02:19:43;;;;;;;1999.90;999.90;;;7.80;99.90;;;;;;5074250;28;20234;-74
2021/05/14 02:22:09;;;;;;;1999.90;999.90;;;7.80;99.90;;;;;;5056092;28;20204;-75
2021/05/14 02:24:34;;;;;;;1999.90;999.90;;;7.90;99.90;;;;;;5056288;28;20177;-74
2021/05/14 02:27:00;;;;;;;1999.90;999.90;;;7.80;99.90;;;;;;5074117;28;20176;-74
2021/05/14 02:29:26;;;;;;;1999.90;999.90;;;7.80;99.90;;;;;;5073495;28;20663;-73
2021/05/14 02:31:51;;;;;;;1999.90;999.90;;;7.70;99.90;;;;;;5073929;28;20197;-76
2021/05/14 02:34:17;;;;;;;1999.90;999.90;;;7.70;99.90;;;;;;5073817;28;20627;-75
2021/05/14 02:36:43;;;;;;;1999.90;999.90;;;7.70;99.90;;;;;;5056018;28;20189;-73
2021/05/14 02:39:09;;;;;;;1999.90;999.90;;;7.70;99.90;;;;;;5073377;28;20203;-76
2021/05/14 02:41:36;;;;;;;1999.90;999.90;;;7.70;99.90;;;;;;5073810;28;20195;-73
2021/05/14 02:44:04;;;;;;;1999.90;999.90;;;7.70;99.90;;;;;;5073758;28;20764;-75
2021/05/14 02:46:30;;;;;;;1999.90;999.90;;;7.70;99.90;;;;;;5055807;28;20712;-76
2021/05/14 02:48:56;;;;;;;1999.90;999.90;;;7.70;99.90;;;;;;5073782;28;20203;-76
2021/05/14 02:51:22;;;;;;;1999.90;999.90;;;7.70;99.90;;;;;;5073548;28;20181;-76
2021/05/14 02:53:47;;;;;;;1999.90;999.90;;;7.60;99.90;;;;;;5073649;28;20516;-75
2021/05/14 02:56:13;;;;;;;1999.90;999.90;;;7.60;99.90;;;;;;5073471;28;20639;-76
2021/05/14 02:58:38;;;;;;;1999.90;999.90;;;7.50;99.90;;;;;;5055640;28;20210;-73
2021/05/14 03:01:04;;;;;;;1999.90;999.90;;;7.50;99.90;;;;;;5055631;28;20182;-75
2021/05/14 03:03:30;;;;;;;1999.90;999.90;;;7.30;99.90;;;;;;5072964;28;20615;-76
2021/05/14 03:05:55;;;;;;;1999.90;999.90;;;7.20;99.90;;;;;;5055521;28;20181;-75
2021/05/14 03:08:21;;;;;;;1999.90;999.90;;;7.30;99.90;;;;;;5073271;28;20173;-73
2021/05/14 03:10:47;;;;;;;1999.90;999.90;;;7.30;99.90;;;;;;5073286;28;20181;-75
2021/05/14 03:13:12;;;;;;;1999.90;999.90;;;7.30;99.90;;;;;;5073082;28;20632;-77
2021/05/14 03:15:38;;;;;;;1999.90;999.90;;;7.30;99.90;;;;;;5073302;28;20546;-76
2021/05/14 03:18:04;;;;;;;1999.90;999.90;;;7.20;99.90;;;;;;5055576;28;20185;-73
2021/05/14 03:20:30;;;;;;;1999.90;999.90;;;7.20;99.90;;;;;;5073280;28;20188;-73
2021/05/14 03:22:55;;;;;;;1999.90;999.90;;;7.20;99.90;;;;;;5057773;28;20205;-76
2021/05/14 03:25:21;;;;;;;1999.90;999.90;;;7.20;99.90;;;;;;5078695;28;20193;-75
2021/05/14 03:27:46;;;;;;;1999.90;999.90;;;7.20;99.90;;;;;;5076856;28;20182;-75
2021/05/14 03:30:13;;;;;;;1999.90;999.90;;;7.20;99.90;;;;;;5073445;28;20200;-76
2021/05/14 03:32:38;;;;;;;1999.90;999.90;;;7.20;99.90;;;;;;5073154;28;20198;-75
2021/05/14 03:35:05;;;;;;;1999.90;999.90;;;7.20;99.90;;;;;;5073220;28;20170;-73
2021/05/14 03:37:31;;;;;;;1999.90;999.90;;;7.20;99.90;;;;;;5072999;28;20220;-76
2021/05/14 03:40:02;;;;;;;1999.90;999.90;;;7.20;99.90;;;;;;5072925;28;20259;-74
2021/05/14 03:42:28;;;;;;;1999.90;999.90;;;7.20;99.90;;;;;;5072871;28;20205;-77
2021/05/14 03:44:55;;;;;;;1999.90;999.90;;;7.10;99.90;;;;;;5072532;28;20593;-76
2021/05/14 03:47:25;;;;;;;1999.90;999.90;;;7.10;99.90;;;;;;5072863;28;20181;-76
2021/05/14 03:49:51;;;;;;;1999.90;999.90;;;7.10;99.90;;;;;;5072868;28;20615;-76
2021/05/14 03:52:17;;;;;;;1999.90;999.90;;;7.10;99.90;;;;;;5056906;28;20193;-75
2021/05/14 03:54:42;;;;;;;1999.90;999.90;;;7.10;99.90;;;;;;5077007;28;20515;-76
2021/05/14 03:57:08;;;;;;;1999.90;999.90;;;7.00;99.90;;;;;;5059052;28;20546;-76
2021/05/14 03:59:38;;;;;;;1999.90;999.90;;;7.40;99.90;;;;;;5076845;28;20177;-75
2021/05/14 04:02:03;;;;;;;1999.90;999.90;;;7.20;99.90;;;;;;5071767;28;20193;-73
2021/05/14 04:04:29;;;;;;;1999.90;999.90;;;7.10;99.90;;;;;;5049640;28;20236;-76
2021/05/14 04:06:55;;;;;;;1999.90;999.90;;;7.30;99.90;;;;;;5073990;28;20268;-76
2021/05/14 04:09:28;;;;;;;1999.90;999.90;;;7.30;99.90;;;;;;5058896;28;20230;-77
2021/05/14 04:12:11;;;;;;;1999.90;999.90;;;6.70;99.90;;;;;;5058944;28;20564;-75
2021/05/14 04:14:37;;;;;;;1999.90;999.90;;;7.00;99.90;;;;;;5076588;28;20173;-75
2021/05/14 04:17:05;;;;;;;1999.90;999.90;;;6.80;99.90;;;;;;5075890;28;20327;-75
2021/05/14 04:19:31;;;;;;;1999.90;999.90;;;6.70;99.90;;;;;;5058645;28;20191;-76
2021/05/14 04:21:59;;;;;;;1999.90;999.90;;;6.70;99.90;;;;;;5058603;28;20292;-75
2021/05/14 04:24:26;;;;;;;1999.90;999.90;;;6.60;99.90;;;;;;5076357;28;20176;-75
2021/05/14 04:26:54;;;;;;;1999.90;999.90;;;6.60;99.90;;;;;;5058542;28;20607;-75
2021/05/14 04:29:20;;;;;;;1999.90;999.90;;;6.50;99.90;;;;;;5058003;28;20261;-75
2021/05/14 04:31:46;;;;;;;1999.90;999.90;;;6.50;99.90;;;;;;5058415;28;20200;-75
2021/05/14 04:34:13;;;;;;;1999.90;999.90;;;6.60;99.90;;;;;;5076154;28;20632;-76
2021/05/14 04:36:39;;;;;;;1999.90;999.90;;;6.70;99.90;;;;;;5076228;28;20180;-75
2021/05/14 04:39:07;;;;;;;1999.90;999.90;;;6.70;99.90;;;;;;5075842;28;20180;-76
2021/05/14 04:41:34;;;;;;;1999.90;999.90;;;6.70;99.90;;;;;;5058135;28;20181;-75
2021/05/14 04:44:00;;;;;;;1999.90;999.90;;;6.70;99.90;;;;;;5056599;28;20182;-76
2021/05/14 04:46:26;;;;;;;1999.90;999.90;;;6.70;99.90;;;;;;5075248;28;20256;-75
2021/05/14 04:48:52;;;;;;;1999.90;999.90;;;6.70;99.90;;;;;;5075947;28;20202;-76
2021/05/14 04:51:19;;;;;;;1999.90;999.90;;;6.60;99.90;;;;;;5075845;28;20207;-74
2021/05/14 04:53:46;;;;;;;1999.90;999.90;;;6.70;99.90;;;;;;5058064;28;20201;-75
2021/05/14 04:56:14;;;;;;;1999.90;999.90;;;6.70;99.90;;;;;;5057001;28;20789;-74
2021/05/14 04:58:43;;;;;;;1999.90;999.90;;;6.80;99.90;;;;;;5074492;28;20181;-72
2021/05/14 05:01:09;;;;;;;1999.90;999.90;;;6.90;99.90;;;;;;5057342;28;20188;-70
2021/05/14 05:03:35;;;;;;;1999.90;999.90;;;7.00;99.90;;;;;;5070492;28;20200;-73
2021/05/14 05:06:04;;;;;;;1999.90;999.90;;;6.80;99.90;;;;;;5056487;28;20635;-73
2021/05/14 05:08:31;;;;;;;1999.90;999.90;;;6.80;99.90;;;;;;5074299;28;20189;-75
2021/05/14 05:10:57;;;;;;;1999.90;999.90;;;6.70;99.90;;;;;;5074209;28;20635;-75
2021/05/14 05:13:22;;;;;;;1999.90;999.90;;;6.70;99.90;;;;;;5056116;28;20277;-75
2021/05/14 05:15:48;;;;;;;1999.90;999.90;;;6.80;99.90;;;;;;5074244;28;20639;-75
2021/05/14 05:18:14;;;;;;;1999.90;999.90;;;7.00;99.90;;;;;;5074208;28;20173;-76
2021/05/14 05:20:39;;;;;;;1999.90;999.90;;;7.20;99.90;;;;;;5073929;28;20674;-75
2021/05/14 05:23:06;;;;;;;1999.90;999.90;;;7.20;99.90;;;;;;5073990;28;20212;-74
2021/05/14 05:25:32;;;;;;;1999.90;999.90;;;7.20;99.90;;;;;;5073614;28;20189;-75
2021/05/14 05:27:57;;;;;;;1999.90;999.90;;;7.30;99.90;;;;;;5055818;28;20561;-75
2021/05/14 05:30:24;;;;;;;1999.90;999.90;;;7.40;99.90;;;;;;5073445;28;20201;-74
2021/05/14 05:32:53;;;;;;;1999.90;999.90;;;7.60;99.90;;;;;;5045039;28;20201;-75
2021/05/14 05:35:19;;;;;;;1999.90;999.90;;;7.70;99.90;;;;;;5055381;28;20181;-74
2021/05/14 05:37:45;;;;;;;1999.90;999.90;;;7.80;99.90;;;;;;5059515;28;20182;-74
2021/05/14 05:40:11;;;;;;;1999.90;999.90;;;7.90;99.90;;;;;;5057661;28;20192;-75
2021/05/14 05:42:37;;;;;;;1999.90;999.90;;;8.00;99.90;;;;;;5057535;28;20210;-76
2021/05/14 05:45:04;;;;;;;1999.90;999.90;;;8.10;99.90;;;;;;5062632;28;20662;-72
2021/05/14 05:47:32;;;;;;;1999.90;999.90;;;8.20;99.90;;;;;;5056955;28;20647;-75
2021/05/14 05:49:58;;;;;;;1999.90;999.90;;;8.40;99.90;;;;;;5057807;28;20198;-75
2021/05/14 05:52:23;;;;;;;1999.90;999.90;;;8.40;99.90;;;;;;5074792;28;20738;-75
2021/05/14 05:54:49;;;;;;;1999.90;999.90;;;8.70;99.90;;;;;;5074691;28;20177;-75
2021/05/14 05:57:15;;;;;;;1999.90;999.90;;;8.90;99.90;;;;;;5066895;28;20241;-76
2021/05/14 05:59:40;;;;;;;1999.90;999.90;;;9.10;99.90;;;;;;5058109;28;20182;-75
2021/05/14 06:02:06;;;;;;;1999.90;999.90;;;9.20;99.90;;;;;;5037380;28;20202;-76
2021/05/14 06:04:33;;;;;;;1999.90;999.90;;;9.20;99.90;;;;;;5055597;28;20240;-76
2021/05/14 06:06:59;;;;;;;1999.90;999.90;;;9.10;99.90;;;;;;5037216;28;20184;-76
2021/05/14 06:09:25;;;;;;;1999.90;999.90;;;9.10;99.90;;;;;;5036813;28;20199;-75
2021/05/14 06:11:51;;;;;;;1999.90;999.90;;;9.00;99.90;;;;;;5038548;28;20204;-75
2021/05/14 06:14:17;;;;;;;1999.90;999.90;;;9.20;99.90;;;;;;5055744;28;20258;-75
2021/05/14 06:16:43;;;;;;;1999.90;999.90;;;9.30;99.90;;;;;;5070788;28;20252;-75
2021/05/14 06:19:23;;;;;;;1999.90;999.90;;;9.50;99.90;;;;;;5074079;28;20548;-75
2021/05/14 06:21:49;;;;;;;1999.90;999.90;;;9.70;99.90;;;;;;5074148;28;20200;-75
2021/05/14 06:24:18;;;;;;;1999.90;999.90;;;9.70;99.90;;;;;;5056492;28;20601;-75
2021/05/14 06:26:46;;;;;;;1999.90;999.90;;;9.80;99.90;;;;;;5055925;28;20192;-76
2021/05/14 06:29:12;;;;;;;1999.90;999.90;;;9.90;99.90;;;;;;5073895;28;20278;-76
2021/05/14 06:31:38;;;;;;;1999.90;999.90;;;10.00;99.90;;;;;;5074156;28;20222;-75
2021/05/14 06:34:03;;;;;;;1999.90;999.90;;;10.20;99.90;;;;;;5074032;28;20219;-76
2021/05/14 06:36:29;;;;;;;1999.90;999.90;;;10.20;99.90;;;;;;5043371;28;20691;-75
2021/05/14 06:38:55;;;;;;;1999.90;999.90;;;10.40;99.90;;;;;;5036917;28;20191;-75
2021/05/14 06:41:21;;;;;;;1999.90;999.90;;;10.40;99.90;;;;;;5072877;28;20222;-75
2021/05/14 06:43:47;;;;;;;1999.90;999.90;;;10.60;99.90;;;;;;5073604;28;20178;-75
2021/05/14 06:46:12;;;;;;;1999.90;999.90;;;10.40;99.90;;;;;;5055160;28;20242;-75
2021/05/14 06:48:40;;;;;;;1999.90;999.90;;;10.40;99.90;;;;;;5073327;28;20183;-76
2021/05/14 06:51:05;;;;;;;1999.90;999.90;;;10.40;99.90;;;;;;5055378;28;20248;-76
2021/05/14 06:53:31;;;;;;;1999.90;999.90;;;10.30;99.90;;;;;;5064070;28;20203;-76
2021/05/14 06:55:57;;;;;;;1999.90;999.90;;;10.20;99.90;;;;;;5066906;28;20184;-75
2021/05/14 06:58:23;;;;;;;1999.90;999.90;;;10.20;99.90;;;;;;5062045;28;20174;-75
2021/05/14 07:00:48;;;;;;;1999.90;999.90;;;10.10;99.90;;;;;;5073187;28;20184;-75
2021/05/14 07:03:14;;;;;;;1999.90;999.90;;;10.20;99.90;;;;;;5073306;28;20250;-75
2021/05/14 07:05:40;;;;;;;1999.90;999.90;;;10.30;99.90;;;;;;5069065;28;20184;-76
2021/05/14 07:08:06;;;;;;;1999.90;999.90;;;10.30;99.90;;;;;;5050329;28;20188;-76
2021/05/14 07:10:32;;;;;;;1999.90;999.90;;;10.40;99.90;;;;;;5072087;28;20229;-76
2021/05/14 07:12:57;;;;;;;1999.90;999.90;;;10.50;99.90;;;;;;5067845;28;20741;-76
2021/05/14 07:15:23;;;;;;;1999.90;999.90;;;;;;;;;;5070943;28;20646;-75
2021/05/14 07:17:49;;;;;;;1999.90;999.90;;;10.90;99.90;;;;;;5093472;22;20227;-77
2021/05/14 07:20:15;;;;;;;1999.90;999.90;;;11.10;99.90;;;;;;5053458;28;20234;-76
2021/05/14 07:22:41;;;;;;;1999.90;999.90;;;11.10;99.90;;;;;;5073037;28;20180;-77
2021/05/14 07:25:07;;;;;;;1999.90;999.90;;;11.00;99.90;;;;;;5054635;28;20257;-77
2021/05/14 07:27:33;;;;;;;1999.90;999.90;;;11.30;99.90;;;;;;5071207;28;20199;-74
2021/05/14 07:29:59;;;;;;;1999.90;999.90;;;11.30;99.90;;;;;;5072442;28;20547;-76
2021/05/14 07:32:25;;;;;;;1999.90;999.90;;;11.30;99.90;;;;;;5073002;28;20195;-76
2021/05/14 07:34:55;;;;;;;1999.90;999.90;;;11.20;99.90;;;;;;5073253;28;20176;-77
2021/05/14 07:37:20;;;;;;;1999.90;999.90;;;11.20;99.90;;;;;;5074249;28;20197;-78
2021/05/14 07:39:46;;;;;;;1999.90;999.90;;;11.30;99.90;;;;;;5074709;28;20184;-76
2021/05/14 07:42:12;;;;;;;1999.90;999.90;;;11.50;99.90;;;;;;5076299;28;20214;-77
2021/05/14 07:44:38;;;;;;;1999.90;999.90;;;11.60;99.90;;;;;;5075836;28;20185;-78
2021/05/14 07:47:05;;;;;;;1999.90;999.90;;;11.70;99.90;;;;;;5074429;28;20204;-76
2021/05/14 07:49:31;;;;;;;1999.90;999.90;;;12.00;99.90;;;;;;5075169;28;20191;-77
2021/05/14 07:51:57;;;;;;;1999.90;999.90;;;12.00;99.90;;;;;;5075386;28;20228;-78
2021/05/14 07:54:23;;;;;;;1999.90;999.90;;;12.10;99.90;;;;;;5075528;28;20249;-78
2021/05/14 07:56:48;;;;;;;1999.90;999.90;;;12.10;99.90;;;;;;5074758;28;20208;-78
2021/05/14 07:59:14;;;;;;;1999.90;999.90;;;12.20;99.90;;;;;;5075541;28;20173;-78
2021/05/14 08:01:40;;;;;;;1999.90;999.90;;;12.30;99.90;;;;;;5075150;28;20173;-77
2021/05/14 08:04:06;;;;;;;1999.90;999.90;;;12.60;99.90;;;;;;5073679;28;20184;-77
2021/05/14 08:06:32;;;;;;;1999.90;999.90;;;12.80;99.90;;;;;;5075914;28;20543;-77
2021/05/14 08:09:02;;;;;;;1999.90;999.90;;;12.80;99.90;;;;;;5072571;28;20685;-78
2021/05/14 08:11:27;;;;;;;1999.90;999.90;;;12.90;99.90;;;;;;5073259;28;20167;-77
2021/05/14 08:13:53;;;;;;;1999.90;999.90;;;13.10;99.90;;;;;;5070619;28;20238;-78
2021/05/14 08:16:19;;;;;;;1999.90;999.90;;;13.00;99.90;;;;;;5074945;28;20168;-78
2021/05/14 08:18:48;;;;;;;1999.90;999.90;;;13.00;99.90;;;;;;5073997;28;20276;-78
2021/05/14 08:21:13;;;;;;;1999.90;999.90;;;13.10;99.90;;;;;;5063604;28;20180;-78
2021/05/14 08:23:39;;;;;;;1999.90;999.90;;;13.10;99.90;;;;;;5078316;28;20236;-77
2021/05/14 08:26:05;;;;;;;1999.90;999.90;;;13.20;99.90;;;;;;5073087;28;20181;-76
2021/05/14 08:28:30;;;;;;;1999.90;999.90;;;13.30;99.90;;;;;;5072831;28;20558;-76
2021/05/14 08:30:57;;;;;;;1999.90;999.90;;;13.50;99.90;;;;;;5073777;28;20204;-77
2021/05/14 08:33:24;;;;;;;1999.90;999.90;;;13.50;99.90;;;;;;5073391;28;20176;-76
2021/05/14 08:35:49;;;;;;;1999.90;999.90;;;13.60;99.90;;;;;;5073057;28;20177;-77
2021/05/14 08:38:15;;;;;;;1999.90;999.90;;;13.70;99.90;;;;;;5075652;28;20211;-77
2021/05/14 08:40:41;;;;;;;1999.90;999.90;;;13.80;99.90;;;;;;5076555;28;20550;-77
2021/05/14 08:43:07;;;;;;;1999.90;999.90;;;14.00;99.90;;;;;;5077586;28;20216;-77
2021/05/14 08:45:33;;;;;;;1999.90;999.90;;;14.10;99.90;;;;;;5077558;28;20180;-78
2021/05/14 08:47:59;;;;;;;1999.90;999.90;;;14.20;99.90;;;;;;5078329;28;20421;-77
2021/05/14 08:50:29;;;;;;;1999.90;999.90;;;14.00;99.90;;;;;;5078849;28;20223;-78
2021/05/14 08:52:55;;;;;;;1999.90;999.90;;;14.10;99.90;;;;;;5079275;28;20188;-78
2021/05/14 08:55:25;;;;;;;1999.90;999.90;;;14.20;99.90;;;;;;5067691;28;20208;-77
2021/05/14 08:57:51;;;;;;;1999.90;999.90;;;14.00;99.90;;;;;;5073770;28;20232;-77
2021/05/14 09:00:18;;;;;;;1999.90;999.90;;;13.90;99.90;;;;;;5077375;28;20173;-79
2021/05/14 09:02:43;;;;;;;1999.90;999.90;;;13.90;99.90;;;;;;5080403;28;20177;-79
2021/05/14 09:05:29;;;;;;;1999.90;999.90;;;14.10;99.90;;;;;;5080018;28;20276;-78
2021/05/14 09:07:56;;;;;;;1999.90;999.90;;;14.30;99.90;;;;;;5079144;28;20197;-78
2021/05/14 09:10:24;;;;;;;1999.90;999.90;;;14.50;99.90;;;;;;5080589;28;20250;-78
2021/05/14 09:12:50;;;;;;;1999.90;999.90;;;14.70;99.90;;;;;;5079735;28;20215;-77
2021/05/14 09:15:25;;;;;;;1999.90;999.90;;;14.70;99.90;;;;;;5077142;28;20216;-78
2021/05/14 09:18:20;;;;;;;1999.90;999.90;;;14.80;99.90;;;;;;5075164;28;20713;-79
2021/05/14 09:20:53;;;;;;;1999.90;999.90;;;14.90;99.90;;;;;;5076831;28;20184;-77
2021/05/14 09:23:18;;;;;;;1999.90;999.90;;;15.10;99.90;;;;;;5068677;28;20547;-77
2021/05/14 09:26:03;;;;;;;1999.90;999.90;;;14.90;99.90;;;;;;5076728;28;20180;-77
2021/05/14 09:28:37;;;;;;;1999.90;999.90;;;15.00;99.90;;;;;;5077049;28;20197;-77
2021/05/14 09:31:10;;;;;;;1999.90;999.90;;;15.20;99.90;;;;;;5076522;28;20206;-77
2021/05/14 09:33:39;;;;;;;1999.90;999.90;;;15.10;99.90;;;;;;5074504;28;20177;-77
2021/05/14 09:36:08;;;;;;;1999.90;999.90;;;15.10;99.90;;;;;;5076716;28;20173;-77
2021/05/14 09:39:07;;;;;;;1999.90;999.90;;;15.30;99.90;;;;;;5074306;28;20193;-77
2021/05/14 09:41:44;;;;;;;1999.90;999.90;;;15.60;99.90;;;;;;5031260;28;20246;-76
2021/05/14 09:44:10;;;;;;;1999.90;999.90;;;15.80;99.90;;;;;;5072461;28;20177;-78
2021/05/14 09:46:58;;;;;;;1999.90;999.90;;;16.10;99.90;;;;;;5076741;28;20178;-77
2021/05/14 09:49:28;;;;;;;1999.90;999.90;;;16.10;99.90;;;;;;5074850;28;20539;-75
2021/05/14 09:52:05;;;;;;;1999.90;999.90;;;16.30;99.90;;;;;;5076293;28;20177;-77
2021/05/14 09:54:42;;;;;;;1999.90;999.90;;;16.10;99.90;;;;;;5076802;28;20169;-75
2021/05/14 10:00:04;;;;;;;1999.90;999.90;;;16.50;99.90;;;;;;5075341;28;20275;-77
2021/05/14 10:02:33;;;;;;;1999.90;999.90;;;16.60;99.90;;;;;;5075230;28;20210;-76
2021/05/14 10:05:00;;;;;;;1999.90;999.90;;;16.70;99.90;;;;;;5062966;28;20554;-77
2021/05/14 10:07:27;;;;;;;1999.90;999.90;;;16.80;99.90;;;;;;5066811;28;20696;-77
2021/05/14 10:09:59;;;;;;;1999.90;999.90;;;16.80;99.90;;;;;;5072292;28;20203;-78
2021/05/14 10:12:25;;;;;;;1999.90;999.90;;;16.60;99.90;;;;;;5073583;28;20259;-78
2021/05/14 10:14:51;;;;;;;1999.90;999.90;;;16.80;99.90;;;;;;5059789;28;20540;-78
2021/05/14 10:17:18;;;;;;;1999.90;999.90;;;17.10;99.90;;;;;;5058930;28;20251;-77
2021/05/14 10:19:46;;;;;;;1999.90;999.90;;;17.00;99.90;;;;;;5061906;28;20176;-78
2021/05/14 10:22:12;;;;;;;1999.90;999.90;;;17.10;99.90;;;;;;5068279;28;20229;-77
2021/05/14 10:24:38;;;;;;;1999.90;999.90;;;17.10;99.90;;;;;;5075357;28;20654;-77
2021/05/14 10:27:21;;;;;;;1999.90;999.90;;;17.20;99.90;;;;;;5074472;28;20210;-77
2021/05/14 10:29:51;;;;;;;1999.90;999.90;;;17.20;99.90;;;;;;5075492;28;20194;-78
2021/05/14 10:32:39;;;;;;;1999.90;999.90;;;15.40;99.90;;;;;;5075535;28;20172;-77
2021/05/14 10:35:06;;;;;;;1999.90;999.90;;;17.50;99.90;;;;;;5073738;28;20171;-78
2021/05/14 10:37:54;;;;;;;1999.90;999.90;;;17.60;99.90;;;;;;5075029;28;20196;-78
2021/05/14 10:40:35;;;;;;;1999.90;999.90;;;17.60;99.90;;;;;;5074808;28;20222;-78
2021/05/14 10:43:02;;;;;;;1999.90;999.90;;;17.70;99.90;;;;;;5074825;28;20184;-78
2021/05/14 10:45:40;;;;;;;1999.90;999.90;;;17.70;99.90;;;;;;5069032;28;20645;-77
2021/05/14 10:48:18;;;;;;;1999.90;999.90;;;17.90;99.90;;;;;;5070729;28;20264;-78
2021/05/14 10:50:46;;;;;;;1999.90;999.90;;;18.20;99.90;;;;;;5075130;28;20254;-78
2021/05/14 10:53:26;;;;;;;1999.90;999.90;;;18.40;99.90;;;;;;5074972;28;20211;-78
2021/05/14 10:55:53;;;;;;;1999.90;999.90;;;18.70;99.90;;;;;;5067203;28;20200;-76
2021/05/14 10:58:37;;;;;;;1999.90;999.90;;;18.80;99.90;;;;;;5069291;28;20197;-79
2021/05/14 11:01:04;;;;;;;1999.90;999.90;;;18.90;99.90;;;;;;5074553;28;20187;-77
2021/05/14 11:03:36;;;;;;;1999.90;999.90;;;18.60;99.90;;;;;;5070299;28;20238;-78
2021/05/14 11:06:09;;;;;;;1999.90;999.90;;;18.20;99.90;;;;;;5075204;28;20254;-76
2021/05/14 11:08:35;;;;;;;1999.90;999.90;;;18.30;99.90;;;;;;5073335;28;20675;-77
2021/05/14 11:11:02;;;;;;;1999.90;999.90;;;18.00;99.90;;;;;;5073899;28;20205;-76
2021/05/14 11:13:40;;;;;;;1999.90;999.90;;;17.90;99.90;;;;;;5073505;28;20533;-77
2021/05/14 11:16:41;;;;;;;1999.90;999.90;;;17.80;99.90;;;;;;5073483;28;20682;-77
2021/05/14 11:19:11;;;;;;;1999.90;999.90;;;17.70;99.90;;;;;;5071769;28;20206;-75
2021/05/14 11:21:56;;;;;;;1999.90;999.90;;;17.70;99.90;;;;;;5073604;28;20188;-77
2021/05/14 11:24:49;;;;;;;1999.90;999.90;;;17.40;99.90;;;;;;5074214;28;20186;-77
2021/05/14 11:27:18;;;;;;;1999.90;999.90;;;17.10;99.90;;;;;;5073958;28;20204;-77
2021/05/14 11:29:55;;;;;;;1999.90;999.90;;;16.90;99.90;;;;;;5073382;28;20196;-75
2021/05/14 11:32:22;;;;;;;1999.90;999.90;;;16.60;99.90;;;;;;5072424;28;20179;-77
2021/05/14 11:35:06;;;;;;;1999.90;999.90;;;16.40;99.90;;;;;;5074023;28;20214;-77
2021/05/14 11:37:39;;;;;;;1999.90;999.90;;;16.30;99.90;;;;;;5074071;28;20193;-77
2021/05/14 11:40:09;;;;;;;1999.90;999.90;;;16.20;99.90;;;;;;5072924;28;20235;-77
2021/05/14 11:42:39;;;;;;;1999.90;999.90;;;16.10;99.90;;;;;;5073840;28;20171;-76
2021/05/14 11:45:08;;;;;;;1999.90;999.90;;;16.00;99.90;;;;;;5074082;28;20205;-78
2021/05/14 11:47:33;;;;;;;1999.90;999.90;;;16.00;99.90;;;;;;5074835;28;20192;-78
2021/05/14 11:49:59;;;;;;;1999.90;999.90;;;15.90;99.90;;;;;;5074004;28;20216;-77
2021/05/14 11:52:36;;;;;;;1999.90;999.90;;;15.80;99.90;;;;;;5071671;28;20178;-77
2021/05/14 11:55:08;;;;;;;1999.90;999.90;;;15.70;99.90;;;;;;5072047;28;20173;-77
2021/05/14 11:57:34;;;;;;;1999.90;999.90;;;15.60;99.90;;;;;;5072474;28;20288;-77
2021/05/14 12:00:00;;;;;;;1999.90;999.90;;;15.80;99.90;;;;;;5074371;28;20213;-77
2021/05/14 12:02:34;;;;;;;1999.90;999.90;;;15.90;99.90;;;;;;5072968;28;20204;-77
2021/05/14 12:04:59;;;;;;;1999.90;999.90;;;15.90;99.90;;;;;;5073086;28;20234;-78
2021/05/14 12:07:25;;;;;;;1999.90;999.90;;;16.00;99.90;;;;;;5072658;28;20752;-78
2021/05/14 12:10:08;;;;;;;1999.90;999.90;;;16.00;99.90;;;;;;5065939;28;20200;-75